sensor_id;sensor_type;location;lat;lon;timestamp;P1;durP1;ratioP1;P2;durP2;ratioP2
46407;SDS011;32110;45.724;21.276;2022-09-25T00:00:08;14.10;;;8.57;;
46407;SDS011;32110;45.724;21.276;2022-09-25T00:02:33;13.35;;;8.10;;
46407;SDS011;32110;45.724;21.276;2022-09-25T00:04:58;14.02;;;8.00;;
46407;SDS011;32110;45.724;21.276;2022-09-25T00:07:23;11.83;;;7.90;;
46407;SDS011;32110;45.724;21.276;2022-09-25T00:09:49;13.00;;;8.37;;
46407;SDS011;32110;45.724;21.276;2022-09-25T00:12:14;13.97;;;8.03;;
46407;SDS011;32110;45.724;21.276;2022-09-25T00:14:39;12.70;;;7.70;;
46407;SDS011;32110;45.724;21.276;2022-09-25T00:17:04;13.57;;;8.32;;
46407;SDS011;32110;45.724;21.276;2022-09-25T00:19:30;11.70;;;7.70;;
46407;SDS011;32110;45.724;21.276;2022-09-25T00:22:14;12.75;;;7.22;;
46407;SDS011;32110;45.724;21.276;2022-09-25T00:24:39;14.02;;;8.13;;
46407;SDS011;32110;45.724;21.276;2022-09-25T00:27:04;15.97;;;8.07;;
46407;SDS011;32110;45.724;21.276;2022-09-25T00:29:32;13.70;;;7.68;;
46407;SDS011;32110;45.724;21.276;2022-09-25T00:31:57;11.20;;;7.55;;
46407;SDS011;32110;45.724;21.276;2022-09-25T00:34:23;10.97;;;7.10;;
46407;SDS011;32110;45.724;21.276;2022-09-25T00:36:48;16.53;;;7.57;;
46407;SDS011;32110;45.724;21.276;2022-09-25T00:39:13;12.53;;;7.77;;
46407;SDS011;32110;45.724;21.276;2022-09-25T00:41:38;10.10;;;7.30;;
46407;SDS011;32110;45.724;21.276;2022-09-25T00:44:39;14.70;;;7.47;;
46407;SDS011;32110;45.724;21.276;2022-09-25T00:46:49;12.05;;;7.53;;
46407;SDS011;32110;45.724;21.276;2022-09-25T00:49:15;12.30;;;8.15;;
46407;SDS011;32110;45.724;21.276;2022-09-25T00:51:43;11.65;;;7.70;;
46407;SDS011;32110;45.724;21.276;2022-09-25T00:54:12;11.65;;;7.38;;
46407;SDS011;32110;45.724;21.276;2022-09-25T00:56:40;13.27;;;7.40;;
46407;SDS011;32110;45.724;21.276;2022-09-25T00:59:07;12.55;;;7.38;;
46407;SDS011;32110;45.724;21.276;2022-09-25T01:01:33;10.98;;;7.13;;
46407;SDS011;32110;45.724;21.276;2022-09-25T01:03:58;13.03;;;7.17;;
46407;SDS011;32110;45.724;21.276;2022-09-25T01:06:24;15.00;;;7.25;;
46407;SDS011;32110;45.724;21.276;2022-09-25T01:08:50;11.38;;;7.22;;
46407;SDS011;32110;45.724;21.276;2022-09-25T01:11:16;11.23;;;7.28;;
46407;SDS011;32110;45.724;21.276;2022-09-25T01:13:41;10.63;;;6.93;;
46407;SDS011;32110;45.724;21.276;2022-09-25T01:16:19;11.55;;;6.93;;
46407;SDS011;32110;45.724;21.276;2022-09-25T01:21:18;10.68;;;6.90;;
46407;SDS011;32110;45.724;21.276;2022-09-25T01:33:59;13.07;;;6.63;;
46407;SDS011;32110;45.724;21.276;2022-09-25T01:37:11;16.00;;;6.90;;
46407;SDS011;32110;45.724;21.276;2022-09-25T01:39:21;11.80;;;7.38;;
46407;SDS011;32110;45.724;21.276;2022-09-25T01:41:51;12.50;;;7.63;;
46407;SDS011;32110;45.724;21.276;2022-09-25T01:44:20;10.65;;;6.63;;
46407;SDS011;32110;45.724;21.276;2022-09-25T01:46:48;9.70;;;6.75;;
46407;SDS011;32110;45.724;21.276;2022-09-25T01:49:28;10.15;;;6.75;;
46407;SDS011;32110;45.724;21.276;2022-09-25T01:54:21;10.90;;;6.90;;
46407;SDS011;32110;45.724;21.276;2022-09-25T01:56:56;10.48;;;5.93;;
46407;SDS011;32110;45.724;21.276;2022-09-25T01:59:28;9.30;;;5.85;;
46407;SDS011;32110;45.724;21.276;2022-09-25T02:01:55;11.75;;;5.85;;
46407;SDS011;32110;45.724;21.276;2022-09-25T02:04:24;9.05;;;5.88;;
46407;SDS011;32110;45.724;21.276;2022-09-25T02:06:50;13.32;;;5.65;;
46407;SDS011;32110;45.724;21.276;2022-09-25T02:09:19;9.63;;;6.00;;
46407;SDS011;32110;45.724;21.276;2022-09-25T02:11:47;9.35;;;5.93;;
46407;SDS011;32110;45.724;21.276;2022-09-25T02:14:16;13.65;;;5.90;;
46407;SDS011;32110;45.724;21.276;2022-09-25T02:16:42;12.98;;;5.20;;
46407;SDS011;32110;45.724;21.276;2022-09-25T02:19:09;9.88;;;5.38;;
46407;SDS011;32110;45.724;21.276;2022-09-25T02:22:15;7.55;;;5.25;;
46407;SDS011;32110;45.724;21.276;2022-09-25T02:24:46;7.53;;;5.03;;
46407;SDS011;32110;45.724;21.276;2022-09-25T02:27:13;7.95;;;5.40;;
46407;SDS011;32110;45.724;21.276;2022-09-25T02:29:38;10.75;;;5.40;;
46407;SDS011;32110;45.724;21.276;2022-09-25T02:32:07;12.18;;;5.65;;
46407;SDS011;32110;45.724;21.276;2022-09-25T02:34:33;7.95;;;5.63;;
46407;SDS011;32110;45.724;21.276;2022-09-25T02:36:58;9.02;;;5.40;;
46407;SDS011;32110;45.724;21.276;2022-09-25T02:39:24;6.90;;;5.13;;
46407;SDS011;32110;45.724;21.276;2022-09-25T02:44:30;8.32;;;5.13;;
46407;SDS011;32110;45.724;21.276;2022-09-25T02:49:39;8.07;;;5.40;;
46407;SDS011;32110;45.724;21.276;2022-09-25T02:52:10;10.32;;;5.10;;
46407;SDS011;32110;45.724;21.276;2022-09-25T02:54:44;9.30;;;4.78;;
46407;SDS011;32110;45.724;21.276;2022-09-25T02:59:51;7.85;;;4.90;;
46407;SDS011;32110;45.724;21.276;2022-09-25T03:02:18;6.55;;;5.00;;
46407;SDS011;32110;45.724;21.276;2022-09-25T03:04:43;6.40;;;4.63;;
46407;SDS011;32110;45.724;21.276;2022-09-25T03:07:12;9.57;;;5.13;;
46407;SDS011;32110;45.724;21.276;2022-09-25T03:09:37;10.15;;;4.80;;
46407;SDS011;32110;45.724;21.276;2022-09-25T03:12:04;12.73;;;5.25;;
46407;SDS011;32110;45.724;21.276;2022-09-25T03:14:29;11.38;;;4.70;;
46407;SDS011;32110;45.724;21.276;2022-09-25T03:16:55;8.07;;;4.68;;
46407;SDS011;32110;45.724;21.276;2022-09-25T03:19:21;8.80;;;4.57;;
46407;SDS011;32110;45.724;21.276;2022-09-25T03:21:48;9.45;;;4.80;;
46407;SDS011;32110;45.724;21.276;2022-09-25T03:24:15;6.00;;;4.78;;
46407;SDS011;32110;45.724;21.276;2022-09-25T03:26:40;7.63;;;4.95;;
46407;SDS011;32110;45.724;21.276;2022-09-25T03:29:06;7.25;;;5.15;;
46407;SDS011;32110;45.724;21.276;2022-09-25T03:31:31;9.38;;;5.10;;
46407;SDS011;32110;45.724;21.276;2022-09-25T03:33:58;6.22;;;4.88;;
46407;SDS011;32110;45.724;21.276;2022-09-25T03:36:24;10.30;;;4.68;;
46407;SDS011;32110;45.724;21.276;2022-09-25T03:38:50;13.05;;;7.80;;
46407;SDS011;32110;45.724;21.276;2022-09-25T03:41:17;10.02;;;5.55;;
46407;SDS011;32110;45.724;21.276;2022-09-25T03:43:45;7.13;;;5.00;;
46407;SDS011;32110;45.724;21.276;2022-09-25T03:46:13;7.80;;;4.95;;
46407;SDS011;32110;45.724;21.276;2022-09-25T03:48:38;6.32;;;4.55;;
46407;SDS011;32110;45.724;21.276;2022-09-25T03:51:04;6.90;;;4.68;;
46407;SDS011;32110;45.724;21.276;2022-09-25T03:53:30;7.03;;;5.43;;
46407;SDS011;32110;45.724;21.276;2022-09-25T03:55:57;6.07;;;4.72;;
46407;SDS011;32110;45.724;21.276;2022-09-25T03:58:23;8.93;;;5.15;;
46407;SDS011;32110;45.724;21.276;2022-09-25T04:00:48;6.75;;;4.88;;
46407;SDS011;32110;45.724;21.276;2022-09-25T04:03:14;7.87;;;5.03;;
46407;SDS011;32110;45.724;21.276;2022-09-25T04:05:40;9.75;;;5.32;;
46407;SDS011;32110;45.724;21.276;2022-09-25T04:08:05;7.78;;;5.55;;
46407;SDS011;32110;45.724;21.276;2022-09-25T04:10:31;7.07;;;5.00;;
46407;SDS011;32110;45.724;21.276;2022-09-25T04:12:56;8.55;;;5.70;;
46407;SDS011;32110;45.724;21.276;2022-09-25T04:15:22;10.68;;;5.05;;
46407;SDS011;32110;45.724;21.276;2022-09-25T04:17:47;10.43;;;4.80;;
46407;SDS011;32110;45.724;21.276;2022-09-25T04:20:12;8.43;;;5.38;;
46407;SDS011;32110;45.724;21.276;2022-09-25T04:22:38;9.70;;;5.00;;
46407;SDS011;32110;45.724;21.276;2022-09-25T04:25:03;7.13;;;5.23;;
46407;SDS011;32110;45.724;21.276;2022-09-25T04:27:28;7.95;;;5.25;;
46407;SDS011;32110;45.724;21.276;2022-09-25T04:29:54;7.32;;;5.18;;
46407;SDS011;32110;45.724;21.276;2022-09-25T04:32:19;8.45;;;5.57;;
46407;SDS011;32110;45.724;21.276;2022-09-25T04:35:03;13.70;;;5.45;;
46407;SDS011;32110;45.724;21.276;2022-09-25T04:37:28;9.30;;;5.65;;
46407;SDS011;32110;45.724;21.276;2022-09-25T04:39:54;7.67;;;5.50;;
46407;SDS011;32110;45.724;21.276;2022-09-25T04:42:20;8.88;;;6.18;;
46407;SDS011;32110;45.724;21.276;2022-09-25T04:44:55;8.38;;;5.07;;
46407;SDS011;32110;45.724;21.276;2022-09-25T04:47:21;9.55;;;5.95;;
46407;SDS011;32110;45.724;21.276;2022-09-25T04:49:46;9.20;;;5.68;;
46407;SDS011;32110;45.724;21.276;2022-09-25T04:52:13;9.85;;;5.68;;
46407;SDS011;32110;45.724;21.276;2022-09-25T04:54:39;8.02;;;5.40;;
46407;SDS011;32110;45.724;21.276;2022-09-25T04:57:04;10.98;;;5.65;;
46407;SDS011;32110;45.724;21.276;2022-09-25T04:59:30;10.07;;;5.63;;
46407;SDS011;32110;45.724;21.276;2022-09-25T05:01:55;7.80;;;5.45;;
46407;SDS011;32110;45.724;21.276;2022-09-25T05:04:20;9.13;;;6.07;;
46407;SDS011;32110;45.724;21.276;2022-09-25T05:06:45;11.30;;;5.87;;
46407;SDS011;32110;45.724;21.276;2022-09-25T05:09:11;13.77;;;6.20;;
46407;SDS011;32110;45.724;21.276;2022-09-25T05:11:36;9.77;;;5.77;;
46407;SDS011;32110;45.724;21.276;2022-09-25T05:14:01;8.97;;;5.33;;
46407;SDS011;32110;45.724;21.276;2022-09-25T05:16:27;7.55;;;5.28;;
46407;SDS011;32110;45.724;21.276;2022-09-25T05:18:54;9.35;;;5.70;;
46407;SDS011;32110;45.724;21.276;2022-09-25T05:21:20;10.23;;;6.00;;
46407;SDS011;32110;45.724;21.276;2022-09-25T05:23:45;11.48;;;6.93;;
46407;SDS011;32110;45.724;21.276;2022-09-25T05:26:11;11.40;;;7.43;;
46407;SDS011;32110;45.724;21.276;2022-09-25T05:28:36;15.57;;;6.88;;
46407;SDS011;32110;45.724;21.276;2022-09-25T05:31:01;12.07;;;6.65;;
46407;SDS011;32110;45.724;21.276;2022-09-25T05:33:27;13.05;;;6.97;;
46407;SDS011;32110;45.724;21.276;2022-09-25T05:35:53;17.52;;;6.43;;
46407;SDS011;32110;45.724;21.276;2022-09-25T05:38:18;10.83;;;5.80;;
46407;SDS011;32110;45.724;21.276;2022-09-25T05:40:43;9.23;;;6.03;;
46407;SDS011;32110;45.724;21.276;2022-09-25T05:43:08;9.85;;;5.82;;
46407;SDS011;32110;45.724;21.276;2022-09-25T05:45:34;8.23;;;5.45;;
46407;SDS011;32110;45.724;21.276;2022-09-25T05:48:04;13.18;;;6.85;;
46407;SDS011;32110;45.724;21.276;2022-09-25T05:50:30;18.80;;;7.82;;
46407;SDS011;32110;45.724;21.276;2022-09-25T05:52:59;25.90;;;9.15;;
46407;SDS011;32110;45.724;21.276;2022-09-25T05:55:24;25.15;;;10.00;;
46407;SDS011;32110;45.724;21.276;2022-09-25T05:57:50;12.88;;;7.35;;
46407;SDS011;32110;45.724;21.276;2022-09-25T06:00:15;13.50;;;6.68;;
46407;SDS011;32110;45.724;21.276;2022-09-25T06:02:41;10.15;;;6.45;;
46407;SDS011;32110;45.724;21.276;2022-09-25T06:05:07;14.52;;;6.05;;
46407;SDS011;32110;45.724;21.276;2022-09-25T06:07:33;9.50;;;5.82;;
46407;SDS011;32110;45.724;21.276;2022-09-25T06:09:58;8.25;;;5.90;;
46407;SDS011;32110;45.724;21.276;2022-09-25T06:12:23;11.57;;;5.87;;
46407;SDS011;32110;45.724;21.276;2022-09-25T06:14:49;9.27;;;6.32;;
46407;SDS011;32110;45.724;21.276;2022-09-25T06:17:15;8.93;;;5.93;;
46407;SDS011;32110;45.724;21.276;2022-09-25T06:19:40;12.10;;;6.30;;
46407;SDS011;32110;45.724;21.276;2022-09-25T06:22:05;7.80;;;5.90;;
46407;SDS011;32110;45.724;21.276;2022-09-25T06:24:31;9.97;;;5.93;;
46407;SDS011;32110;45.724;21.276;2022-09-25T06:26:56;11.68;;;6.10;;
46407;SDS011;32110;45.724;21.276;2022-09-25T06:29:21;12.50;;;6.77;;
46407;SDS011;32110;45.724;21.276;2022-09-25T06:31:46;12.63;;;7.50;;
46407;SDS011;32110;45.724;21.276;2022-09-25T06:34:12;14.60;;;7.27;;
46407;SDS011;32110;45.724;21.276;2022-09-25T06:36:37;12.90;;;7.10;;
46407;SDS011;32110;45.724;21.276;2022-09-25T06:39:03;13.07;;;7.10;;
46407;SDS011;32110;45.724;21.276;2022-09-25T06:41:28;14.10;;;7.00;;
46407;SDS011;32110;45.724;21.276;2022-09-25T06:43:53;9.83;;;6.40;;
46407;SDS011;32110;45.724;21.276;2022-09-25T06:46:19;18.15;;;7.20;;
46407;SDS011;32110;45.724;21.276;2022-09-25T06:48:51;11.55;;;6.30;;
46407;SDS011;32110;45.724;21.276;2022-09-25T06:51:18;11.43;;;6.13;;
46407;SDS011;32110;45.724;21.276;2022-09-25T06:53:43;10.80;;;5.80;;
46407;SDS011;32110;45.724;21.276;2022-09-25T06:56:08;14.90;;;6.33;;
46407;SDS011;32110;45.724;21.276;2022-09-25T06:58:34;10.47;;;6.70;;
46407;SDS011;32110;45.724;21.276;2022-09-25T07:01:00;12.18;;;6.90;;
46407;SDS011;32110;45.724;21.276;2022-09-25T07:03:25;13.20;;;6.20;;
46407;SDS011;32110;45.724;21.276;2022-09-25T07:06:10;9.77;;;5.50;;
46407;SDS011;32110;45.724;21.276;2022-09-25T07:08:36;9.77;;;5.82;;
46407;SDS011;32110;45.724;21.276;2022-09-25T07:11:01;10.23;;;6.00;;
46407;SDS011;32110;45.724;21.276;2022-09-25T07:13:27;14.45;;;6.50;;
46407;SDS011;32110;45.724;21.276;2022-09-25T07:15:57;12.45;;;6.10;;
46407;SDS011;32110;45.724;21.276;2022-09-25T07:20:48;12.05;;;5.53;;
46407;SDS011;32110;45.724;21.276;2022-09-25T07:23:14;10.60;;;6.05;;
46407;SDS011;32110;45.724;21.276;2022-09-25T07:25:39;10.85;;;5.30;;
46407;SDS011;32110;45.724;21.276;2022-09-25T07:28:05;13.27;;;5.20;;
46407;SDS011;32110;45.724;21.276;2022-09-25T07:30:31;8.13;;;5.10;;
46407;SDS011;32110;45.724;21.276;2022-09-25T07:32:56;7.60;;;4.90;;
46407;SDS011;32110;45.724;21.276;2022-09-25T07:35:22;8.37;;;5.13;;
46407;SDS011;32110;45.724;21.276;2022-09-25T07:37:47;9.07;;;5.55;;
46407;SDS011;32110;45.724;21.276;2022-09-25T07:40:12;7.83;;;5.43;;
46407;SDS011;32110;45.724;21.276;2022-09-25T07:42:39;8.60;;;5.07;;
46407;SDS011;32110;45.724;21.276;2022-09-25T07:45:04;9.50;;;5.22;;
46407;SDS011;32110;45.724;21.276;2022-09-25T07:47:29;10.40;;;5.10;;
46407;SDS011;32110;45.724;21.276;2022-09-25T07:49:55;8.50;;;4.95;;
46407;SDS011;32110;45.724;21.276;2022-09-25T07:52:20;7.77;;;5.43;;
46407;SDS011;32110;45.724;21.276;2022-09-25T07:54:45;6.43;;;4.47;;
46407;SDS011;32110;45.724;21.276;2022-09-25T07:57:11;8.38;;;5.60;;
46407;SDS011;32110;45.724;21.276;2022-09-25T07:59:37;10.77;;;5.05;;
46407;SDS011;32110;45.724;21.276;2022-09-25T08:02:02;8.02;;;4.78;;
46407;SDS011;32110;45.724;21.276;2022-09-25T08:04:29;7.15;;;4.20;;
46407;SDS011;32110;45.724;21.276;2022-09-25T08:06:56;7.85;;;4.53;;
46407;SDS011;32110;45.724;21.276;2022-09-25T08:09:22;9.45;;;4.70;;
46407;SDS011;32110;45.724;21.276;2022-09-25T08:11:47;8.03;;;4.43;;
46407;SDS011;32110;45.724;21.276;2022-09-25T08:14:12;5.63;;;4.13;;
46407;SDS011;32110;45.724;21.276;2022-09-25T08:19:07;6.23;;;4.37;;
46407;SDS011;32110;45.724;21.276;2022-09-25T08:21:32;6.93;;;4.70;;
46407;SDS011;32110;45.724;21.276;2022-09-25T08:23:58;8.38;;;4.32;;
46407;SDS011;32110;45.724;21.276;2022-09-25T08:26:25;6.50;;;4.43;;
46407;SDS011;32110;45.724;21.276;2022-09-25T08:28:52;6.90;;;3.60;;
46407;SDS011;32110;45.724;21.276;2022-09-25T08:31:17;5.18;;;3.58;;
46407;SDS011;32110;45.724;21.276;2022-09-25T08:33:46;7.90;;;3.63;;
46407;SDS011;32110;45.724;21.276;2022-09-25T08:36:12;6.53;;;3.70;;
46407;SDS011;32110;45.724;21.276;2022-09-25T08:38:37;6.00;;;3.10;;
46407;SDS011;32110;45.724;21.276;2022-09-25T08:44:01;5.38;;;3.42;;
46407;SDS011;32110;45.724;21.276;2022-09-25T08:46:37;5.45;;;3.33;;
46407;SDS011;32110;45.724;21.276;2022-09-25T08:49:22;4.63;;;2.90;;
46407;SDS011;32110;45.724;21.276;2022-09-25T08:51:50;5.10;;;3.13;;
46407;SDS011;32110;45.724;21.276;2022-09-25T08:54:26;4.80;;;3.20;;
46407;SDS011;32110;45.724;21.276;2022-09-25T08:56:54;4.15;;;2.95;;
46407;SDS011;32110;45.724;21.276;2022-09-25T08:59:39;6.72;;;3.15;;
46407;SDS011;32110;45.724;21.276;2022-09-25T09:02:19;4.65;;;2.92;;
46407;SDS011;32110;45.724;21.276;2022-09-25T09:04:46;5.47;;;3.30;;
46407;SDS011;32110;45.724;21.276;2022-09-25T09:07:54;4.80;;;2.83;;
46407;SDS011;32110;45.724;21.276;2022-09-25T09:13:00;10.65;;;3.25;;
46407;SDS011;32110;45.724;21.276;2022-09-25T09:15:36;8.07;;;3.03;;
46407;SDS011;32110;45.724;21.276;2022-09-25T09:20:46;9.73;;;2.70;;
46407;SDS011;32110;45.724;21.276;2022-09-25T09:23:15;3.47;;;2.63;;
46407;SDS011;32110;45.724;21.276;2022-09-25T09:26:03;4.80;;;3.00;;
46407;SDS011;32110;45.724;21.276;2022-09-25T09:33:50;5.20;;;2.95;;
46407;SDS011;32110;45.724;21.276;2022-09-25T09:46:26;6.43;;;2.60;;
46407;SDS011;32110;45.724;21.276;2022-09-25T09:54:08;4.93;;;2.80;;
46407;SDS011;32110;45.724;21.276;2022-09-25T09:56:43;4.85;;;2.42;;
46407;SDS011;32110;45.724;21.276;2022-09-25T09:59:13;5.32;;;2.90;;
46407;SDS011;32110;45.724;21.276;2022-09-25T10:01:39;9.80;;;3.13;;
46407;SDS011;32110;45.724;21.276;2022-09-25T10:04:19;4.00;;;2.65;;
46407;SDS011;32110;45.724;21.276;2022-09-25T10:06:54;4.30;;;2.50;;
46407;SDS011;32110;45.724;21.276;2022-09-25T10:09:20;6.47;;;2.60;;
46407;SDS011;32110;45.724;21.276;2022-09-25T10:11:55;6.40;;;2.28;;
46407;SDS011;32110;45.724;21.276;2022-09-25T10:14:28;6.38;;;2.58;;
46407;SDS011;32110;45.724;21.276;2022-09-25T10:19:22;3.97;;;2.55;;
46407;SDS011;32110;45.724;21.276;2022-09-25T10:21:51;6.50;;;2.90;;
46407;SDS011;32110;45.724;21.276;2022-09-25T10:27:38;4.65;;;2.60;;
46407;SDS011;32110;45.724;21.276;2022-09-25T10:33:17;4.90;;;2.97;;
46407;SDS011;32110;45.724;21.276;2022-09-25T10:38:01;7.72;;;2.90;;
46407;SDS011;32110;45.724;21.276;2022-09-25T10:40:34;5.03;;;3.45;;
46407;SDS011;32110;45.724;21.276;2022-09-25T10:43:03;6.78;;;4.78;;
46407;SDS011;32110;45.724;21.276;2022-09-25T10:45:40;5.97;;;3.97;;
46407;SDS011;32110;45.724;21.276;2022-09-25T10:48:52;5.40;;;3.72;;
46407;SDS011;32110;45.724;21.276;2022-09-25T10:51:18;6.80;;;3.00;;
46407;SDS011;32110;45.724;21.276;2022-09-25T10:53:46;3.85;;;2.92;;
46407;SDS011;32110;45.724;21.276;2022-09-25T10:56:17;4.97;;;2.67;;
46407;SDS011;32110;45.724;21.276;2022-09-25T10:58:52;4.43;;;3.22;;
46407;SDS011;32110;45.724;21.276;2022-09-25T11:01:32;4.13;;;2.85;;
46407;SDS011;32110;45.724;21.276;2022-09-25T11:04:02;4.90;;;2.80;;
46407;SDS011;32110;45.724;21.276;2022-09-25T11:06:32;5.60;;;2.95;;
46407;SDS011;32110;45.724;21.276;2022-09-25T11:09:03;6.30;;;3.40;;
46407;SDS011;32110;45.724;21.276;2022-09-25T11:11:32;7.25;;;3.50;;
46407;SDS011;32110;45.724;21.276;2022-09-25T11:13:59;4.53;;;3.20;;
46407;SDS011;32110;45.724;21.276;2022-09-25T11:16:43;8.13;;;4.57;;
46407;SDS011;32110;45.724;21.276;2022-09-25T11:19:21;9.40;;;4.80;;
46407;SDS011;32110;45.724;21.276;2022-09-25T11:30:04;6.28;;;2.70;;
46407;SDS011;32110;45.724;21.276;2022-09-25T11:38:49;4.68;;;3.05;;
46407;SDS011;32110;45.724;21.276;2022-09-25T11:49:29;8.73;;;4.18;;
46407;SDS011;32110;45.724;21.276;2022-09-25T12:00:21;5.43;;;3.90;;
46407;SDS011;32110;45.724;21.276;2022-09-25T12:10:53;4.32;;;3.00;;
46407;SDS011;32110;45.724;21.276;2022-09-25T12:16:26;5.68;;;2.70;;
46407;SDS011;32110;45.724;21.276;2022-09-25T12:25:03;4.07;;;3.22;;
46407;SDS011;32110;45.724;21.276;2022-09-25T12:30:42;5.05;;;3.08;;
46407;SDS011;32110;45.724;21.276;2022-09-25T12:33:13;4.00;;;3.10;;
46407;SDS011;32110;45.724;21.276;2022-09-25T12:41:06;6.68;;;3.47;;
46407;SDS011;32110;45.724;21.276;2022-09-25T12:46:27;4.80;;;3.20;;
46407;SDS011;32110;45.724;21.276;2022-09-25T12:49:03;7.65;;;3.60;;
46407;SDS011;32110;45.724;21.276;2022-09-25T12:51:44;7.10;;;3.13;;
46407;SDS011;32110;45.724;21.276;2022-09-25T13:07:36;5.03;;;3.10;;
46407;SDS011;32110;45.724;21.276;2022-09-25T13:12:56;5.88;;;3.58;;
46407;SDS011;32110;45.724;21.276;2022-09-25T13:15:26;9.23;;;3.65;;
46407;SDS011;32110;45.724;21.276;2022-09-25T13:17:54;6.38;;;3.60;;
46407;SDS011;32110;45.724;21.276;2022-09-25T13:21:20;7.05;;;3.50;;
46407;SDS011;32110;45.724;21.276;2022-09-25T13:23:28;4.55;;;3.40;;
46407;SDS011;32110;45.724;21.276;2022-09-25T13:26:40;5.07;;;3.35;;
46407;SDS011;32110;45.724;21.276;2022-09-25T13:33:47;6.40;;;3.10;;
46407;SDS011;32110;45.724;21.276;2022-09-25T13:38:48;4.65;;;3.00;;
46407;SDS011;32110;45.724;21.276;2022-09-25T13:41:36;4.90;;;3.60;;
46407;SDS011;32110;45.724;21.276;2022-09-25T14:03:36;7.40;;;3.53;;
46407;SDS011;32110;45.724;21.276;2022-09-25T14:06:15;5.05;;;3.40;;
46407;SDS011;32110;45.724;21.276;2022-09-25T14:08:43;4.47;;;3.30;;
46407;SDS011;32110;45.724;21.276;2022-09-25T14:11:12;8.98;;;3.38;;
46407;SDS011;32110;45.724;21.276;2022-09-25T14:13:42;6.93;;;3.38;;
46407;SDS011;32110;45.724;21.276;2022-09-25T14:16:45;5.15;;;3.30;;
46407;SDS011;32110;45.724;21.276;2022-09-25T14:21:39;8.63;;;3.53;;
46407;SDS011;32110;45.724;21.276;2022-09-25T14:26:44;4.72;;;3.33;;
46407;SDS011;32110;45.724;21.276;2022-09-25T14:29:17;5.32;;;3.25;;
46407;SDS011;32110;45.724;21.276;2022-09-25T14:48:43;6.55;;;3.58;;
46407;SDS011;32110;45.724;21.276;2022-09-25T14:51:11;6.43;;;3.40;;
46407;SDS011;32110;45.724;21.276;2022-09-25T14:53:43;6.50;;;3.55;;
46407;SDS011;32110;45.724;21.276;2022-09-25T14:56:13;4.72;;;3.70;;
46407;SDS011;32110;45.724;21.276;2022-09-25T14:58:42;8.65;;;3.70;;
46407;SDS011;32110;45.724;21.276;2022-09-25T15:01:27;5.47;;;3.08;;
46407;SDS011;32110;45.724;21.276;2022-09-25T15:03:57;7.45;;;3.65;;
46407;SDS011;32110;45.724;21.276;2022-09-25T15:06:27;7.20;;;4.57;;
46407;SDS011;32110;45.724;21.276;2022-09-25T15:08:57;6.55;;;3.70;;
46407;SDS011;32110;45.724;21.276;2022-09-25T15:11:26;5.82;;;3.67;;
46407;SDS011;32110;45.724;21.276;2022-09-25T15:14:10;6.25;;;3.60;;
46407;SDS011;32110;45.724;21.276;2022-09-25T15:16:40;4.70;;;3.53;;
46407;SDS011;32110;45.724;21.276;2022-09-25T15:19:27;8.02;;;3.65;;
46407;SDS011;32110;45.724;21.276;2022-09-25T15:21:57;7.75;;;3.83;;
46407;SDS011;32110;45.724;21.276;2022-09-25T15:24:23;8.15;;;3.80;;
46407;SDS011;32110;45.724;21.276;2022-09-25T15:27:02;7.32;;;3.60;;
46407;SDS011;32110;45.724;21.276;2022-09-25T15:29:34;8.27;;;3.70;;
46407;SDS011;32110;45.724;21.276;2022-09-25T15:32:02;9.10;;;3.83;;
46407;SDS011;32110;45.724;21.276;2022-09-25T15:34:29;6.45;;;3.63;;
46407;SDS011;32110;45.724;21.276;2022-09-25T15:37:05;7.72;;;3.83;;
46407;SDS011;32110;45.724;21.276;2022-09-25T15:39:50;6.63;;;3.67;;
46407;SDS011;32110;45.724;21.276;2022-09-25T15:42:16;6.85;;;3.67;;
46407;SDS011;32110;45.724;21.276;2022-09-25T15:44:42;6.20;;;3.90;;
46407;SDS011;32110;45.724;21.276;2022-09-25T15:47:27;7.25;;;4.22;;
46407;SDS011;32110;45.724;21.276;2022-09-25T15:49:59;7.88;;;4.22;;
46407;SDS011;32110;45.724;21.276;2022-09-25T15:52:25;7.65;;;4.60;;
46407;SDS011;32110;45.724;21.276;2022-09-25T15:54:58;7.70;;;3.50;;
46407;SDS011;32110;45.724;21.276;2022-09-25T15:57:27;5.93;;;4.05;;
46407;SDS011;32110;45.724;21.276;2022-09-25T15:59:54;8.45;;;3.75;;
46407;SDS011;32110;45.724;21.276;2022-09-25T16:03:02;5.95;;;4.28;;
46407;SDS011;32110;45.724;21.276;2022-09-25T16:05:46;10.82;;;5.10;;
46407;SDS011;32110;45.724;21.276;2022-09-25T16:10:39;8.73;;;5.22;;
46407;SDS011;32110;45.724;21.276;2022-09-25T16:13:14;8.73;;;5.75;;
46407;SDS011;32110;45.724;21.276;2022-09-25T16:15:47;9.45;;;5.00;;
46407;SDS011;32110;45.724;21.276;2022-09-25T16:23:38;7.10;;;4.35;;
46407;SDS011;32110;45.724;21.276;2022-09-25T16:26:16;6.20;;;3.88;;
46407;SDS011;32110;45.724;21.276;2022-09-25T16:28:56;10.32;;;3.80;;
46407;SDS011;32110;45.724;21.276;2022-09-25T16:31:30;7.22;;;4.25;;
46407;SDS011;32110;45.724;21.276;2022-09-25T16:33:58;9.45;;;4.20;;
46407;SDS011;32110;45.724;21.276;2022-09-25T16:36:25;19.83;;;5.55;;
46407;SDS011;32110;45.724;21.276;2022-09-25T16:39:20;9.63;;;6.07;;
46407;SDS011;32110;45.724;21.276;2022-09-25T16:42:22;11.63;;;6.82;;
46407;SDS011;32110;45.724;21.276;2022-09-25T16:44:46;18.05;;;8.80;;
46407;SDS011;32110;45.724;21.276;2022-09-25T16:47:14;17.10;;;8.85;;
46407;SDS011;32110;45.724;21.276;2022-09-25T16:49:43;15.75;;;8.57;;
46407;SDS011;32110;45.724;21.276;2022-09-25T16:52:13;19.77;;;8.70;;
46407;SDS011;32110;45.724;21.276;2022-09-25T16:54:44;14.05;;;8.27;;
46407;SDS011;32110;45.724;21.276;2022-09-25T16:57:12;15.15;;;9.40;;
46407;SDS011;32110;45.724;21.276;2022-09-25T16:59:41;13.25;;;8.02;;
46407;SDS011;32110;45.724;21.276;2022-09-25T17:02:09;14.55;;;8.10;;
46407;SDS011;32110;45.724;21.276;2022-09-25T17:04:43;14.23;;;7.80;;
46407;SDS011;32110;45.724;21.276;2022-09-25T17:07:08;13.73;;;7.10;;
46407;SDS011;32110;45.724;21.276;2022-09-25T17:09:34;11.68;;;7.63;;
46407;SDS011;32110;45.724;21.276;2022-09-25T17:12:11;15.70;;;8.00;;
46407;SDS011;32110;45.724;21.276;2022-09-25T17:14:44;10.80;;;7.80;;
46407;SDS011;32110;45.724;21.276;2022-09-25T17:17:17;19.98;;;8.25;;
46407;SDS011;32110;45.724;21.276;2022-09-25T17:19:44;14.40;;;7.40;;
46407;SDS011;32110;45.724;21.276;2022-09-25T17:22:10;14.90;;;7.45;;
46407;SDS011;32110;45.724;21.276;2022-09-25T17:24:36;12.75;;;7.85;;
46407;SDS011;32110;45.724;21.276;2022-09-25T17:27:04;8.70;;;6.82;;
46407;SDS011;32110;45.724;21.276;2022-09-25T17:29:35;12.75;;;7.18;;
46407;SDS011;32110;45.724;21.276;2022-09-25T17:32:01;15.50;;;7.13;;
46407;SDS011;32110;45.724;21.276;2022-09-25T17:34:28;14.10;;;6.88;;
46407;SDS011;32110;45.724;21.276;2022-09-25T17:36:54;11.73;;;7.55;;
46407;SDS011;32110;45.724;21.276;2022-09-25T17:39:22;11.93;;;7.07;;
46407;SDS011;32110;45.724;21.276;2022-09-25T17:41:48;16.85;;;8.23;;
46407;SDS011;32110;45.724;21.276;2022-09-25T17:44:15;12.18;;;6.60;;
46407;SDS011;32110;45.724;21.276;2022-09-25T17:46:42;9.48;;;6.47;;
46407;SDS011;32110;45.724;21.276;2022-09-25T17:49:08;13.25;;;6.57;;
46407;SDS011;32110;45.724;21.276;2022-09-25T17:51:34;9.73;;;5.85;;
46407;SDS011;32110;45.724;21.276;2022-09-25T17:53:59;10.98;;;5.70;;
46407;SDS011;32110;45.724;21.276;2022-09-25T17:56:29;11.68;;;5.90;;
46407;SDS011;32110;45.724;21.276;2022-09-25T17:58:55;6.82;;;5.32;;
46407;SDS011;32110;45.724;21.276;2022-09-25T18:01:22;7.05;;;4.72;;